createdAt,value
2018-07-23T00:00:29.585Z,0.00
2018-07-23T00:01:29.598Z,0.00
2018-07-23T00:02:29.618Z,0.00
2018-07-23T00:03:29.643Z,0.00
2018-07-23T00:04:29.653Z,0.00
2018-07-23T00:05:29.672Z,0.00
2018-07-23T00:06:29.700Z,0.00
2018-07-23T00:07:29.717Z,0.00
2018-07-23T00:08:29.723Z,0.00
2018-07-23T00:09:29.741Z,0.00
2018-07-23T00:10:29.760Z,0.00
2018-07-23T00:11:29.774Z,0.00
2018-07-23T00:12:29.804Z,0.00
2018-07-23T00:13:29.813Z,0.00
2018-07-23T00:14:29.829Z,0.00
2018-07-23T00:15:29.844Z,0.00
2018-07-23T00:16:29.862Z,0.00
2018-07-23T00:17:29.932Z,0.00
2018-07-23T00:18:29.896Z,0.00
2018-07-23T00:19:29.912Z,0.00
2018-07-23T00:20:29.932Z,0.00
2018-07-23T00:21:29.949Z,0.00
2018-07-23T00:22:29.966Z,0.00
2018-07-23T00:23:29.984Z,0.00
2018-07-23T00:24:30.001Z,0.00
2018-07-23T00:25:30.019Z,0.00
2018-07-23T00:26:30.037Z,0.00
2018-07-23T00:27:30.054Z,0.00
2018-07-23T00:28:30.076Z,0.00
2018-07-23T00:29:30.090Z,0.00
2018-07-23T00:30:30.139Z,0.00
2018-07-23T00:31:30.127Z,0.00
2018-07-23T00:32:30.141Z,0.00
2018-07-23T00:33:30.163Z,0.00
2018-07-23T00:34:30.182Z,0.00
2018-07-23T00:35:30.193Z,0.00
2018-07-23T00:36:30.214Z,0.00
2018-07-23T00:37:30.234Z,0.00
2018-07-23T00:38:30.264Z,0.00
2018-07-23T00:39:30.280Z,0.00
2018-07-23T00:40:30.281Z,0.00
2018-07-23T00:41:30.350Z,0.00
2018-07-23T00:42:30.411Z,0.00
2018-07-23T00:43:30.341Z,0.00
2018-07-23T00:44:30.348Z,0.00
2018-07-23T00:45:30.369Z,0.00
2018-07-23T00:46:30.386Z,0.00
2018-07-23T00:47:30.405Z,0.00
2018-07-23T00:48:30.420Z,0.00
2018-07-23T00:49:30.437Z,0.00
2018-07-23T00:50:30.457Z,0.00
2018-07-23T00:51:30.473Z,0.00
2018-07-23T00:52:30.495Z,0.00
2018-07-23T00:53:30.508Z,0.00
2018-07-23T00:54:30.530Z,0.00
2018-07-23T00:55:30.543Z,0.00
2018-07-23T00:56:30.558Z,0.00
2018-07-23T00:57:30.579Z,0.00
2018-07-23T00:58:30.593Z,0.00
2018-07-23T00:59:30.610Z,0.00
2018-07-23T01:00:30.630Z,0.00
2018-07-23T01:01:30.646Z,0.00
2018-07-23T01:02:30.663Z,0.00
2018-07-23T01:03:30.681Z,0.00
2018-07-23T01:04:30.697Z,0.00
2018-07-23T01:05:30.715Z,0.00
2018-07-23T01:06:30.733Z,0.00
2018-07-23T01:07:30.750Z,0.00
2018-07-23T01:08:30.768Z,0.00
2018-07-23T01:09:30.784Z,0.00
2018-07-23T01:10:30.803Z,0.00
2018-07-23T01:11:30.858Z,0.00
2018-07-23T01:12:30.852Z,0.00
2018-07-23T01:13:30.873Z,0.00
2018-07-23T01:14:30.876Z,0.00
2018-07-23T01:15:30.889Z,0.00
2018-07-23T01:16:30.899Z,0.00
2018-07-23T01:17:30.916Z,0.00
2018-07-23T01:18:30.932Z,0.00
2018-07-23T01:19:31.001Z,0.00
2018-07-23T01:20:30.976Z,0.00
2018-07-23T01:21:30.989Z,0.00
2018-07-23T01:22:31.001Z,0.00
2018-07-23T01:23:31.019Z,0.00
2018-07-23T01:24:31.036Z,0.00
2018-07-23T01:25:31.054Z,0.00
2018-07-23T01:26:31.071Z,0.00
2018-07-23T01:27:31.098Z,0.00
2018-07-23T01:28:31.105Z,0.00
2018-07-23T01:29:31.124Z,0.00
2018-07-23T01:30:31.141Z,0.00
2018-07-23T01:31:31.160Z,0.00
2018-07-23T01:32:31.177Z,0.00
2018-07-23T01:33:31.195Z,0.00
2018-07-23T01:34:31.209Z,0.00
2018-07-23T01:35:31.225Z,0.00
2018-07-23T01:36:31.243Z,0.00
2018-07-23T01:37:31.261Z,0.00
2018-07-23T01:38:31.280Z,0.00
2018-07-23T01:39:31.294Z,0.00
2018-07-23T01:40:31.313Z,0.00
2018-07-23T01:41:31.330Z,0.00
2018-07-23T01:42:31.354Z,0.00
2018-07-23T01:43:31.394Z,0.00
2018-07-23T01:44:31.400Z,0.00
2018-07-23T01:45:31.400Z,0.00
2018-07-23T01:46:31.421Z,0.00
2018-07-23T01:47:31.466Z,0.00
2018-07-23T01:48:31.452Z,0.00
2018-07-23T01:49:31.472Z,0.00
2018-07-23T01:50:31.485Z,0.00
2018-07-23T01:51:31.522Z,0.00
2018-07-23T01:52:31.519Z,0.00
2018-07-23T01:53:31.538Z,0.00
2018-07-23T01:54:31.556Z,0.00
2018-07-23T01:55:31.573Z,0.00
2018-07-23T01:56:31.588Z,0.00
2018-07-23T01:57:31.605Z,0.00
2018-07-23T01:58:31.622Z,0.00
2018-07-23T01:59:31.638Z,0.00
2018-07-23T02:00:31.657Z,0.00
2018-07-23T02:01:31.674Z,0.00
2018-07-23T02:02:31.691Z,0.00
2018-07-23T02:03:31.711Z,0.00
2018-07-23T02:04:31.726Z,0.00
2018-07-23T02:05:31.743Z,0.00
2018-07-23T02:06:31.759Z,0.00
2018-07-23T02:07:31.777Z,0.00
2018-07-23T02:08:31.793Z,0.00
2018-07-23T02:09:31.813Z,0.00
2018-07-23T02:10:31.828Z,0.00
2018-07-23T02:11:31.846Z,0.00
2018-07-23T02:12:31.864Z,0.00
2018-07-23T02:13:31.881Z,0.00
2018-07-23T02:14:31.898Z,0.00
2018-07-23T02:15:31.914Z,0.00
2018-07-23T02:16:31.932Z,0.00
2018-07-23T02:17:31.951Z,0.00
2018-07-23T02:19:32.047Z,0.00
2018-07-23T02:20:32.005Z,0.00
2018-07-23T02:21:32.018Z,0.00
2018-07-23T02:22:32.034Z,0.00
2018-07-23T02:23:32.053Z,0.00
2018-07-23T02:24:32.071Z,0.00
2018-07-23T02:25:32.091Z,0.00
2018-07-23T02:26:32.102Z,0.00
2018-07-23T02:27:32.121Z,0.00
2018-07-23T02:28:32.141Z,0.00
2018-07-23T02:29:32.158Z,0.00
2018-07-23T02:30:32.173Z,0.00
2018-07-23T02:31:32.189Z,0.00
2018-07-23T02:32:32.207Z,0.00
2018-07-23T02:33:32.230Z,0.00
2018-07-23T02:34:32.241Z,0.00
2018-07-23T02:35:32.265Z,0.00
2018-07-23T02:36:32.277Z,0.00
2018-07-23T02:37:32.300Z,0.00
2018-07-23T02:38:32.309Z,0.00
2018-07-23T02:39:32.332Z,0.00
2018-07-23T02:40:32.345Z,0.00
2018-07-23T02:41:32.361Z,0.00
2018-07-23T02:42:32.379Z,0.00
2018-07-23T02:43:32.396Z,0.00
2018-07-23T02:44:32.416Z,0.00
2018-07-23T02:45:32.431Z,0.00
2018-07-23T02:46:32.448Z,4.00
2018-07-23T02:47:32.472Z,4.00
2018-07-23T02:48:32.483Z,4.00
2018-07-23T02:49:32.500Z,4.00
2018-07-23T02:50:32.521Z,4.00
2018-07-23T02:51:32.533Z,4.00
2018-07-23T02:52:32.705Z,4.00
2018-07-23T02:53:32.578Z,4.00
2018-07-23T02:54:32.585Z,4.00
2018-07-23T02:55:32.619Z,4.00
2018-07-23T02:56:32.621Z,4.00
2018-07-23T02:57:32.640Z,4.00
2018-07-23T02:58:32.653Z,4.00
2018-07-23T02:59:32.740Z,4.00
2018-07-23T03:00:32.687Z,4.00
2018-07-23T03:01:32.705Z,4.00
2018-07-23T03:02:32.720Z,4.00
2018-07-23T03:03:32.748Z,0.00
2018-07-23T03:04:32.754Z,4.00
2018-07-23T03:05:32.776Z,4.00
2018-07-23T03:06:32.790Z,4.00
2018-07-23T03:07:32.804Z,4.00
2018-07-23T03:08:32.821Z,4.00
2018-07-23T03:09:32.837Z,4.00
2018-07-23T03:10:32.858Z,4.00
2018-07-23T03:11:32.871Z,4.00
2018-07-23T03:12:32.887Z,8.00
2018-07-23T03:13:32.916Z,4.00
2018-07-23T03:14:32.922Z,8.00
2018-07-23T03:15:32.939Z,4.00
2018-07-23T03:16:32.955Z,8.00
2018-07-23T03:17:32.972Z,8.00
2018-07-23T03:18:33.001Z,8.00
2018-07-23T03:19:33.006Z,8.00
2018-07-23T03:20:33.021Z,8.00
2018-07-23T03:21:33.100Z,8.00
2018-07-23T03:22:33.054Z,8.00
2018-07-23T03:23:33.081Z,12.00
2018-07-23T03:24:33.094Z,12.00
2018-07-23T03:25:33.130Z,16.00
2018-07-23T03:26:33.137Z,16.00
2018-07-23T03:27:33.164Z,20.00
2018-07-23T03:28:33.161Z,20.00
2018-07-23T03:29:33.532Z,24.00
2018-07-23T03:30:33.188Z,28.00
2018-07-23T03:31:33.208Z,28.00
2018-07-23T03:32:33.222Z,32.00
2018-07-23T03:33:33.245Z,40.00
2018-07-23T03:34:33.257Z,40.00
2018-07-23T03:35:33.276Z,44.00
2018-07-23T03:36:33.294Z,44.00
2018-07-23T03:37:33.306Z,52.00
2018-07-23T03:38:33.321Z,56.00
2018-07-23T03:39:33.341Z,56.00
2018-07-23T03:40:33.355Z,64.00
2018-07-23T03:41:33.373Z,68.00
2018-07-23T03:42:33.390Z,76.00
2018-07-23T03:43:33.408Z,76.00
2018-07-23T03:44:33.421Z,84.00
2018-07-23T03:45:33.443Z,88.00
2018-07-23T03:46:33.458Z,96.00
2018-07-23T03:47:33.471Z,100.00
2018-07-23T03:48:33.488Z,108.00
2018-07-23T03:49:33.606Z,112.00
2018-07-23T03:50:33.521Z,120.00
2018-07-23T03:51:33.539Z,128.00
2018-07-23T03:52:33.561Z,136.00
2018-07-23T03:53:33.571Z,144.00
2018-07-23T03:54:33.589Z,148.00
2018-07-23T03:55:33.605Z,160.00
2018-07-23T03:56:33.629Z,168.00
2018-07-23T03:57:33.647Z,176.00
2018-07-23T03:58:33.679Z,188.00
2018-07-23T03:59:33.673Z,196.00
2018-07-23T04:00:33.688Z,208.00
2018-07-23T04:01:33.708Z,216.00
2018-07-23T04:02:33.747Z,224.00
2018-07-23T04:03:33.763Z,232.00
2018-07-23T04:04:33.764Z,244.00
2018-07-23T04:05:33.775Z,252.00
2018-07-23T04:06:33.788Z,268.00
2018-07-23T04:07:33.806Z,276.00
2018-07-23T04:08:33.820Z,284.00
2018-07-23T04:09:33.838Z,296.00
2018-07-23T04:10:33.853Z,308.00
2018-07-23T04:11:33.870Z,320.00
2018-07-23T04:12:33.901Z,332.00
2018-07-23T04:13:33.904Z,340.00
2018-07-23T04:14:33.919Z,356.00
2018-07-23T04:15:33.940Z,364.00
2018-07-23T04:16:33.955Z,376.00
2018-07-23T04:17:34.021Z,388.00
2018-07-23T04:18:33.986Z,400.00
2018-07-23T04:19:34.047Z,412.00
2018-07-23T04:20:34.095Z,428.00
2018-07-23T04:21:34.143Z,436.00
2018-07-23T04:22:34.124Z,452.00
2018-07-23T04:23:34.095Z,464.00
2018-07-23T04:24:34.086Z,476.00
2018-07-23T04:25:34.103Z,492.00
2018-07-23T04:26:34.117Z,508.00
2018-07-23T04:27:34.135Z,520.00
2018-07-23T04:28:34.149Z,532.00
2018-07-23T04:29:34.168Z,544.00
2018-07-23T04:30:34.196Z,568.00
2018-07-23T04:31:34.226Z,584.00
2018-07-23T04:32:34.252Z,596.00
2018-07-23T04:33:34.243Z,608.00
2018-07-23T04:34:34.247Z,612.00
2018-07-23T04:35:34.266Z,624.00
2018-07-23T04:36:34.298Z,640.00
2018-07-23T04:37:34.302Z,652.00
2018-07-23T04:38:34.315Z,664.00
2018-07-23T04:39:34.346Z,676.00
2018-07-23T04:40:34.350Z,692.00
2018-07-23T04:41:34.365Z,716.00
2018-07-23T04:42:34.390Z,844.00
2018-07-23T04:43:34.400Z,876.00
2018-07-23T04:44:34.418Z,988.00
2018-07-23T04:45:34.430Z,968.00
2018-07-23T04:46:34.446Z,864.00
2018-07-23T04:47:34.464Z,912.00
2018-07-23T04:48:34.480Z,1072.00
2018-07-23T04:49:34.500Z,768.00
2018-07-23T04:50:34.609Z,780.00
2018-07-23T04:51:34.532Z,768.00
2018-07-23T04:52:34.547Z,764.00
2018-07-23T04:53:34.564Z,736.00
2018-07-23T04:54:34.580Z,688.00
2018-07-23T04:55:34.597Z,688.00
2018-07-23T04:56:34.647Z,696.00
2018-07-23T04:57:34.635Z,700.00
2018-07-23T04:58:34.645Z,696.00
2018-07-23T04:59:34.674Z,704.00
2018-07-23T05:00:34.678Z,700.00
2018-07-23T05:01:34.701Z,708.00
2018-07-23T05:02:34.711Z,712.00
2018-07-23T05:03:34.731Z,716.00
2018-07-23T05:04:34.775Z,720.00
2018-07-23T05:05:34.795Z,720.00
2018-07-23T05:06:34.789Z,720.00
2018-07-23T05:07:34.792Z,724.00
2018-07-23T05:08:34.815Z,740.00
2018-07-23T05:09:34.858Z,768.00
2018-07-23T05:10:34.849Z,812.00
2018-07-23T05:11:34.862Z,860.00
2018-07-23T05:12:34.876Z,876.00
2018-07-23T05:13:34.894Z,920.00
2018-07-23T05:14:34.909Z,952.00
2018-07-23T05:15:34.925Z,980.00
2018-07-23T05:16:34.943Z,1132.00
2018-07-23T05:17:34.960Z,1208.00
2018-07-23T05:18:34.976Z,1212.00
2018-07-23T05:19:34.992Z,1220.00
2018-07-23T05:20:35.019Z,1232.00
2018-07-23T05:21:35.030Z,1248.00
2018-07-23T05:22:35.042Z,1260.00
2018-07-23T05:23:35.061Z,1272.00
2018-07-23T05:24:35.123Z,1288.00
2018-07-23T05:25:35.107Z,1300.00
2018-07-23T05:26:35.109Z,1312.00
2018-07-23T05:27:35.131Z,1328.00
2018-07-23T05:28:35.146Z,1352.00
2018-07-23T05:29:35.156Z,1368.00
2018-07-23T05:30:35.194Z,1388.00
2018-07-23T05:31:35.196Z,1404.00
2018-07-23T05:32:35.210Z,1420.00
2018-07-23T05:33:35.234Z,1432.00
2018-07-23T05:34:35.245Z,1456.00
2018-07-23T05:35:35.257Z,1460.00
2018-07-23T05:36:35.272Z,1476.00
2018-07-23T05:37:35.296Z,1488.00
2018-07-23T05:38:35.342Z,1500.00
2018-07-23T05:39:35.333Z,1512.00
2018-07-23T05:40:35.385Z,1524.00
2018-07-23T05:41:35.362Z,1532.00
2018-07-23T05:42:35.370Z,1544.00
2018-07-23T05:43:35.386Z,1556.00
2018-07-23T05:44:35.420Z,1568.00
2018-07-23T05:45:35.421Z,1580.00
2018-07-23T05:46:35.438Z,1592.00
2018-07-23T05:47:35.456Z,1600.00
2018-07-23T05:48:35.471Z,1608.00
2018-07-23T05:49:35.504Z,1632.00
2018-07-23T05:51:35.525Z,1652.00
2018-07-23T05:52:35.542Z,1660.00
2018-07-23T05:53:35.565Z,1672.00
2018-07-23T05:54:35.582Z,1680.00
2018-07-23T05:55:35.906Z,1688.00
2018-07-23T05:56:35.606Z,1696.00
2018-07-23T05:57:35.682Z,1716.00
2018-07-23T05:58:35.651Z,1720.00
2018-07-23T05:59:35.660Z,1732.00
2018-07-23T06:00:35.675Z,1744.00
2018-07-23T06:01:35.698Z,1752.00
2018-07-23T06:02:35.708Z,1768.00
2018-07-23T06:03:35.776Z,1776.00
2018-07-23T06:04:35.740Z,1780.00
2018-07-23T06:05:35.755Z,1796.00
2018-07-23T06:06:35.831Z,1796.00
2018-07-23T06:07:35.789Z,1820.00
2018-07-23T06:08:35.818Z,1820.00
2018-07-23T06:09:35.830Z,1828.00
2018-07-23T06:10:35.848Z,1840.00
2018-07-23T06:11:36.262Z,1844.00
2018-07-23T06:12:36.016Z,1860.00
2018-07-23T06:13:35.967Z,1864.00
2018-07-23T06:14:35.934Z,1880.00
2018-07-23T06:15:36.044Z,1888.00
2018-07-23T06:16:36.067Z,1896.00
2018-07-23T06:17:36.030Z,1912.00
2018-07-23T06:18:35.982Z,1920.00
2018-07-23T06:19:36.093Z,1924.00
2018-07-23T06:20:36.031Z,1940.00
2018-07-23T06:21:36.410Z,1944.00
2018-07-23T06:22:36.046Z,1964.00
2018-07-23T06:23:36.070Z,1968.00
2018-07-23T06:24:36.077Z,1972.00
2018-07-23T06:25:36.142Z,1992.00
2018-07-23T06:26:36.180Z,1996.00
2018-07-23T06:27:36.661Z,2004.00
2018-07-23T06:28:36.148Z,2016.00
2018-07-23T06:29:36.163Z,2024.00
2018-07-23T06:30:36.698Z,2028.00
2018-07-23T06:31:36.289Z,2040.00
2018-07-23T06:32:36.485Z,2052.00
2018-07-23T06:33:36.310Z,2064.00
2018-07-23T06:34:36.246Z,2084.00
2018-07-23T06:35:36.263Z,2088.00
2018-07-23T06:36:36.369Z,2092.00
2018-07-23T06:37:36.414Z,2108.00
2018-07-23T06:38:36.325Z,2116.00
2018-07-23T06:39:36.332Z,2120.00
2018-07-23T06:40:36.376Z,2140.00
2018-07-23T06:41:36.370Z,2156.00
2018-07-23T06:42:36.382Z,2160.00
2018-07-23T06:43:36.405Z,2172.00
2018-07-23T06:44:36.420Z,2176.00
2018-07-23T06:45:36.465Z,2180.00
2018-07-23T06:46:36.523Z,2204.00
2018-07-23T06:47:36.468Z,2216.00
2018-07-23T06:48:36.487Z,2232.00
2018-07-23T06:49:36.546Z,2232.00
2018-07-23T06:50:37.162Z,2236.00
2018-07-23T06:51:36.536Z,2244.00
2018-07-23T06:52:36.562Z,2248.00
2018-07-23T06:53:36.592Z,2264.00
2018-07-23T06:54:36.609Z,2268.00
2018-07-23T06:55:36.612Z,2268.00
2018-07-23T06:56:36.642Z,2284.00
2018-07-23T06:57:36.643Z,2296.00
2018-07-23T06:58:36.660Z,2320.00
2018-07-23T06:59:36.676Z,2328.00
2018-07-23T07:00:36.764Z,2340.00
2018-07-23T07:01:36.711Z,2360.00
2018-07-23T07:02:36.735Z,2368.00
2018-07-23T07:03:36.798Z,2368.00
2018-07-23T07:04:36.795Z,2384.00
2018-07-23T07:05:36.825Z,2388.00
2018-07-23T07:06:36.802Z,2400.00
2018-07-23T07:07:36.818Z,2428.00
2018-07-23T07:08:36.841Z,2448.00
2018-07-23T07:09:36.852Z,2460.00
2018-07-23T07:10:36.869Z,2468.00
2018-07-23T07:11:36.888Z,2476.00
2018-07-23T07:13:36.968Z,2504.00
2018-07-23T07:14:36.945Z,2512.00
2018-07-23T07:15:36.960Z,2504.00
2018-07-23T07:16:36.983Z,2496.00
2018-07-23T07:17:36.993Z,2540.00
2018-07-23T07:18:37.127Z,2568.00
2018-07-23T07:19:37.022Z,2588.00
2018-07-23T07:20:37.051Z,2572.00
2018-07-23T07:21:37.053Z,2564.00
2018-07-23T07:22:37.086Z,2584.00
2018-07-23T07:23:37.087Z,2576.00
2018-07-23T07:24:37.111Z,2580.00
2018-07-23T07:25:37.126Z,2620.00
2018-07-23T07:26:37.139Z,2644.00
2018-07-23T07:27:37.206Z,2676.00
2018-07-23T07:28:37.182Z,2688.00
2018-07-23T07:29:37.199Z,2668.00
2018-07-23T07:30:37.216Z,2688.00
2018-07-23T07:31:37.229Z,2688.00
2018-07-23T07:32:37.244Z,2716.00
2018-07-23T07:33:37.261Z,2712.00
2018-07-23T07:34:37.280Z,2712.00
2018-07-23T07:35:37.299Z,2696.00
2018-07-23T07:36:37.317Z,2680.00
2018-07-23T07:37:37.331Z,2720.00
2018-07-23T07:38:37.354Z,2740.00
2018-07-23T07:39:37.379Z,2784.00
2018-07-23T07:40:38.673Z,2800.00
2018-07-23T07:41:39.674Z,2820.00
2018-07-23T07:42:38.328Z,2844.00
2018-07-23T07:43:37.438Z,2844.00
2018-07-23T07:44:37.457Z,2840.00
2018-07-23T07:45:37.484Z,2832.00
2018-07-23T07:46:37.499Z,2828.00
2018-07-23T07:47:37.509Z,2828.00
2018-07-23T07:48:37.538Z,2868.00
2018-07-23T07:49:37.588Z,2856.00
2018-07-23T07:50:37.560Z,2856.00
2018-07-23T07:51:38.032Z,2864.00
2018-07-23T07:52:37.695Z,2872.00
2018-07-23T07:53:37.686Z,2852.00
2018-07-23T07:54:38.634Z,2868.00
2018-07-23T07:55:38.462Z,2872.00
2018-07-23T07:56:37.675Z,2888.00
2018-07-23T07:57:37.686Z,2860.00
2018-07-23T07:58:37.709Z,2852.00
2018-07-23T07:59:37.784Z,2860.00
2018-07-23T08:00:37.874Z,2888.00
2018-07-23T08:01:37.789Z,2932.00
2018-07-23T08:02:37.774Z,2956.00
2018-07-23T08:03:37.792Z,2968.00
2018-07-23T08:04:37.810Z,2972.00
2018-07-23T08:05:37.832Z,2960.00
2018-07-23T08:06:37.845Z,2964.00
2018-07-23T08:07:37.863Z,2968.00
2018-07-23T08:08:37.888Z,2976.00
2018-07-23T08:09:37.899Z,2976.00
2018-07-23T08:10:37.917Z,2972.00
2018-07-23T08:11:37.936Z,3408.00
2018-07-23T08:12:38.227Z,2900.00
2018-07-23T08:13:37.985Z,2996.00
2018-07-23T08:14:39.687Z,2972.00
2018-07-23T08:15:38.022Z,3016.00
2018-07-23T08:16:38.026Z,3024.00
2018-07-23T08:17:38.044Z,3024.00
2018-07-23T08:18:38.060Z,3008.00
2018-07-23T08:19:41.779Z,3032.00
2018-07-23T08:20:38.235Z,3064.00
2018-07-23T08:22:38.136Z,3096.00
2018-07-23T08:23:38.150Z,3084.00
2018-07-23T08:24:38.171Z,3088.00
2018-07-23T08:25:38.187Z,3116.00
2018-07-23T08:26:38.204Z,3148.00
2018-07-23T08:27:38.222Z,3136.00
2018-07-23T08:28:38.250Z,3140.00
2018-07-23T08:29:38.260Z,3124.00
2018-07-23T08:30:38.280Z,3132.00
2018-07-23T08:31:38.349Z,3148.00
2018-07-23T08:32:38.320Z,3144.00
2018-07-23T08:33:38.330Z,3152.00
2018-07-23T08:34:38.348Z,3160.00
2018-07-23T08:35:38.367Z,3168.00
2018-07-23T08:36:38.412Z,3192.00
2018-07-23T08:37:38.404Z,3220.00
2018-07-23T08:38:38.496Z,3220.00
2018-07-23T08:39:38.460Z,3204.00
2018-07-23T08:40:38.457Z,3208.00
2018-07-23T08:41:38.479Z,3236.00
2018-07-23T08:42:38.496Z,3232.00
2018-07-23T08:43:38.631Z,3236.00
2018-07-23T08:44:38.531Z,3240.00
2018-07-23T08:45:38.752Z,3272.00
2018-07-23T08:46:38.582Z,3272.00
2018-07-23T08:47:38.587Z,3276.00
2018-07-23T08:48:38.671Z,3288.00
2018-07-23T08:49:38.639Z,3320.00
2018-07-23T08:50:38.652Z,3356.00
2018-07-23T08:51:39.024Z,3384.00
2018-07-23T08:52:38.684Z,3388.00
2018-07-23T08:53:38.749Z,3388.00
2018-07-23T08:54:38.713Z,3380.00
2018-07-23T08:55:38.739Z,3392.00
2018-07-23T08:56:38.903Z,3388.00
2018-07-23T08:57:38.927Z,3400.00
2018-07-23T08:58:38.786Z,3400.00
2018-07-23T08:59:38.807Z,3392.00
2018-07-23T09:00:38.971Z,3388.00
2018-07-23T09:01:38.849Z,3384.00
2018-07-23T09:02:38.875Z,3408.00
2018-07-23T09:03:38.884Z,3436.00
2018-07-23T09:05:38.936Z,3452.00
2018-07-23T09:06:38.940Z,3452.00
2018-07-23T09:07:38.962Z,3460.00
2018-07-23T09:08:39.080Z,3460.00
2018-07-23T09:09:38.994Z,3484.00
2018-07-23T09:10:39.010Z,3504.00
2018-07-23T09:11:39.028Z,3480.00
2018-07-23T09:12:39.056Z,3468.00
2018-07-23T09:13:39.068Z,3524.00
2018-07-23T09:14:39.098Z,3568.00
2018-07-23T09:15:39.101Z,3560.00
2018-07-23T09:16:39.122Z,3588.00
2018-07-23T09:17:39.150Z,3572.00
2018-07-23T09:18:39.160Z,3584.00
2018-07-23T09:19:39.285Z,3604.00
2018-07-23T09:20:39.544Z,3592.00
2018-07-23T09:21:39.216Z,3600.00
2018-07-23T09:22:39.332Z,3580.00
2018-07-23T09:23:39.263Z,3596.00
2018-07-23T09:24:39.375Z,3604.00
2018-07-23T09:25:39.303Z,3612.00
2018-07-23T09:26:39.339Z,3624.00
2018-07-23T09:27:39.323Z,3612.00
2018-07-23T09:28:39.343Z,3592.00
2018-07-23T09:29:39.564Z,3600.00
2018-07-23T09:30:41.805Z,3620.00
2018-07-23T09:31:39.679Z,3640.00
2018-07-23T09:32:39.655Z,3644.00
2018-07-23T09:33:39.438Z,3636.00
2018-07-23T09:34:39.467Z,3608.00
2018-07-23T09:35:39.475Z,3632.00
2018-07-23T09:36:39.502Z,3628.00
2018-07-23T09:37:39.515Z,3660.00
2018-07-23T09:38:40.409Z,3672.00
2018-07-23T09:39:39.665Z,3700.00
2018-07-23T09:40:39.567Z,3716.00
2018-07-23T09:41:39.588Z,3712.00
2018-07-23T09:42:39.605Z,3708.00
2018-07-23T09:43:39.636Z,3700.00
2018-07-23T09:44:39.670Z,3720.00
2018-07-23T09:45:39.671Z,3696.00
2018-07-23T09:46:39.880Z,3696.00
2018-07-23T09:47:39.699Z,3712.00
2018-07-23T09:48:39.719Z,3728.00
2018-07-23T09:49:39.733Z,3724.00
2018-07-23T09:50:39.761Z,3740.00
2018-07-23T09:51:39.772Z,3752.00
2018-07-23T09:52:39.810Z,3740.00
2018-07-23T09:53:39.810Z,3732.00
2018-07-23T09:54:39.829Z,3732.00
2018-07-23T09:55:39.861Z,3732.00
2018-07-23T09:56:39.978Z,3744.00
2018-07-23T09:57:39.987Z,3764.00
2018-07-23T09:58:40.008Z,3752.00
2018-07-23T09:59:39.925Z,3736.00
2018-07-23T10:00:39.959Z,3708.00
2018-07-23T10:01:39.967Z,3716.00
2018-07-23T10:02:40.518Z,3720.00
2018-07-23T10:03:40.086Z,3716.00
2018-07-23T10:04:40.369Z,3664.00
2018-07-23T10:05:40.243Z,3724.00
2018-07-23T10:06:40.186Z,3712.00
2018-07-23T10:07:40.079Z,3712.00
2018-07-23T10:08:40.286Z,3680.00
2018-07-23T10:10:40.647Z,3716.00
2018-07-23T10:11:40.185Z,3772.00
2018-07-23T10:12:41.459Z,3784.00
2018-07-23T10:13:40.415Z,3792.00
2018-07-23T10:14:40.207Z,3804.00
2018-07-23T10:15:40.271Z,3780.00
2018-07-23T10:16:40.320Z,3780.00
2018-07-23T10:17:40.322Z,3756.00
2018-07-23T10:18:40.692Z,3768.00
2018-07-23T10:19:40.312Z,3740.00
2018-07-23T10:20:40.563Z,3724.00
2018-07-23T10:21:40.339Z,3748.00
2018-07-23T10:22:40.361Z,3748.00
2018-07-23T10:23:40.471Z,3732.00
2018-07-23T10:24:40.420Z,3692.00
2018-07-23T10:25:40.472Z,3708.00
2018-07-23T10:26:40.445Z,3636.00
2018-07-23T10:27:40.453Z,3684.00
2018-07-23T10:28:40.520Z,3724.00
2018-07-23T10:29:40.494Z,3720.00
2018-07-23T10:30:40.520Z,3720.00
2018-07-23T10:31:40.540Z,3704.00
2018-07-23T10:32:40.553Z,3688.00
2018-07-23T10:33:40.590Z,3692.00
2018-07-23T10:34:40.790Z,3744.00
2018-07-23T10:35:40.606Z,3720.00
2018-07-23T10:36:40.645Z,3708.00
2018-07-23T10:37:40.648Z,3672.00
2018-07-23T10:39:40.743Z,3700.00
2018-07-23T10:40:40.704Z,3696.00
2018-07-23T10:41:40.726Z,3716.00
2018-07-23T10:42:40.836Z,3724.00
2018-07-23T10:43:40.766Z,3748.00
2018-07-23T10:44:40.786Z,3744.00
2018-07-23T10:45:40.804Z,3756.00
2018-07-23T10:46:40.839Z,3724.00
2018-07-23T10:47:41.234Z,3736.00
2018-07-23T10:49:40.880Z,3748.00
2018-07-23T10:50:40.935Z,3712.00
2018-07-23T10:51:41.269Z,3724.00
2018-07-23T10:52:40.943Z,3712.00
2018-07-23T10:53:40.957Z,3732.00
2018-07-23T10:54:40.989Z,3716.00
2018-07-23T10:55:41.744Z,3708.00
2018-07-23T10:56:41.031Z,3712.00
2018-07-23T10:57:41.035Z,3720.00
2018-07-23T10:58:41.055Z,3724.00
2018-07-23T10:59:41.075Z,3696.00
2018-07-23T11:00:41.095Z,3680.00
2018-07-23T11:01:41.118Z,3652.00
2018-07-23T11:02:41.134Z,3632.00
2018-07-23T11:03:41.166Z,3708.00
2018-07-23T11:04:41.174Z,3732.00
2018-07-23T11:05:41.211Z,3744.00
2018-07-23T11:06:41.234Z,3776.00
2018-07-23T11:07:41.242Z,3788.00
2018-07-23T11:08:41.272Z,3872.00
2018-07-23T11:09:41.279Z,3820.00
2018-07-23T11:10:41.341Z,3808.00
2018-07-23T11:11:41.337Z,3812.00
2018-07-23T11:12:41.383Z,3828.00
2018-07-23T11:14:41.457Z,3856.00
2018-07-23T11:15:41.392Z,3852.00
2018-07-23T11:17:42.086Z,3880.00
2018-07-23T11:18:41.451Z,3912.00
2018-07-23T11:19:41.481Z,3928.00
2018-07-23T11:20:42.239Z,3928.00
2018-07-23T11:21:41.513Z,3920.00
2018-07-23T11:22:41.612Z,3904.00
2018-07-23T11:23:41.836Z,3900.00
2018-07-23T11:24:45.541Z,3908.00
2018-07-23T11:25:41.606Z,3932.00
2018-07-23T11:26:41.728Z,3928.00
2018-07-23T11:27:41.631Z,3928.00
2018-07-23T11:28:41.653Z,3944.00
2018-07-23T11:29:41.695Z,3944.00
2018-07-23T11:30:41.995Z,3968.00
2018-07-23T11:31:41.714Z,3960.00
2018-07-23T11:32:41.731Z,3948.00
2018-07-23T11:33:41.754Z,3956.00
2018-07-23T11:34:41.770Z,3980.00
2018-07-23T11:35:41.791Z,4044.00
2018-07-23T11:36:42.250Z,4008.00
2018-07-23T11:37:41.895Z,3972.00
2018-07-23T11:38:41.852Z,4040.00
2018-07-23T11:39:42.408Z,4068.00
2018-07-23T11:40:41.906Z,4140.00
2018-07-23T11:41:41.978Z,4184.00
2018-07-23T11:42:41.944Z,4236.00
2018-07-23T11:43:41.962Z,4252.00
2018-07-23T11:44:42.000Z,4268.00
2018-07-23T11:46:42.013Z,4312.00
2018-07-23T11:47:42.211Z,4300.00
2018-07-23T11:49:42.097Z,4276.00
2018-07-23T11:50:42.141Z,4248.00
2018-07-23T11:51:42.118Z,4268.00
2018-07-23T11:52:42.149Z,4324.00
2018-07-23T11:53:42.179Z,4360.00
2018-07-23T11:54:42.175Z,4428.00
2018-07-23T11:55:42.215Z,4468.00
2018-07-23T11:56:42.287Z,4496.00
2018-07-23T11:58:42.335Z,4724.00
2018-07-23T11:59:42.294Z,4772.00
2018-07-23T12:00:42.295Z,4876.00
2018-07-23T12:01:42.362Z,5028.00
2018-07-23T12:02:42.340Z,5168.00
2018-07-23T12:03:42.358Z,5188.00
2018-07-23T12:04:42.493Z,5136.00
2018-07-23T12:05:42.409Z,5056.00
2018-07-23T12:06:42.419Z,4948.00
2018-07-23T12:07:43.297Z,4840.00
2018-07-23T12:08:42.461Z,4856.00
2018-07-23T12:09:42.483Z,4920.00
2018-07-23T12:10:42.508Z,4844.00
2018-07-23T12:11:42.591Z,4880.00
2018-07-23T12:12:42.558Z,4948.00
2018-07-23T12:14:42.668Z,5140.00
2018-07-23T12:15:42.671Z,5124.00
2018-07-23T12:16:42.639Z,5164.00
2018-07-23T12:17:42.844Z,5216.00
2018-07-23T12:18:42.725Z,5220.00
2018-07-23T12:19:42.723Z,5344.00
2018-07-23T12:20:42.789Z,5396.00
2018-07-23T12:21:42.732Z,5416.00
2018-07-23T12:22:42.816Z,5360.00
2018-07-23T12:23:42.789Z,5328.00
2018-07-23T12:24:43.034Z,5380.00
2018-07-23T12:25:42.860Z,5360.00
2018-07-23T12:26:42.841Z,5400.00
2018-07-23T12:27:42.859Z,5384.00
2018-07-23T12:28:42.882Z,5420.00
2018-07-23T12:29:42.913Z,5444.00
2018-07-23T12:30:42.926Z,5496.00
2018-07-23T12:31:42.953Z,5540.00
2018-07-23T12:32:42.973Z,5536.00
2018-07-23T12:33:43.905Z,5580.00
2018-07-23T12:34:43.380Z,5644.00
2018-07-23T12:35:43.032Z,5708.00
2018-07-23T12:36:43.674Z,5712.00
2018-07-23T12:37:43.142Z,5780.00
2018-07-23T12:38:43.181Z,5752.00
2018-07-23T12:39:43.179Z,5716.00
2018-07-23T12:40:43.190Z,5748.00
2018-07-23T12:41:43.159Z,5696.00
2018-07-23T12:42:43.213Z,5656.00